Time;durP1;ratioP1;P1;durP2;ratioP2;P2;SDS_P1;SDS_P2;PMS_P1;PMS_P2;Temp;Humidity;BMP_temperature;BMP_pressure;BME280_temperature;BME280_humidity;BME280_pressure;Samples;Min_cycle;Max_cycle;Signal;HPM_P1;HPM_P2
2021/12/12 00:01:20;;;;;;;3.08;1.50;;;;;;;;;;5080820;28;20039;-75
2021/12/12 00:03:49;;;;;;;4.00;1.60;;;;;;;;;;5084208;28;20552;-76
2021/12/12 00:06:20;;;;;;;4.32;1.30;;;;;;;;;;5083391;28;20376;-75
2021/12/12 00:08:48;;;;;;;5.05;1.70;;;;;;;;;;5082287;28;20040;-76
2021/12/12 00:11:15;;;;;;;4.90;1.95;;;;;;;;;;5085799;28;20090;-76
2021/12/12 00:14:00;;;;;;;4.43;1.55;;;;;;;;;;5083215;28;20067;-76
2021/12/12 00:16:27;;;;;;;4.20;1.70;;;;;;;;;;5074787;28;20029;-75
2021/12/12 00:18:52;;;;;;;3.85;1.70;;;;;;;;;;5073425;28;20067;-74
2021/12/12 00:21:19;;;;;;;4.32;1.60;;;;;;;;;;5073311;28;20452;-73
2021/12/12 00:23:44;;;;;;;5.00;1.63;;;;;;;;;;5074523;28;20032;-75
2021/12/12 00:26:10;;;;;;;4.97;1.80;;;;;;;;;;5074615;28;20039;-75
2021/12/12 00:28:35;;;;;;;4.72;1.80;;;;;;;;;;5074481;28;20037;-75
2021/12/12 00:31:08;;;;;;;6.60;1.70;;;;;;;;;;5074222;28;20046;-76
2021/12/12 00:33:34;;;;;;;3.65;1.33;;;;;;;;;;5074743;28;20490;-75
2021/12/12 00:35:59;;;;;;;6.65;1.88;;;;;;;;;;5074237;28;20033;-77
2021/12/12 00:38:26;;;;;;;5.35;2.00;;;;;;;;;;5074256;28;20036;-76
2021/12/12 00:40:53;;;;;;;4.43;1.67;;;;;;;;;;5072772;28;20064;-76
2021/12/12 00:43:21;;;;;;;5.15;1.40;;;;;;;;;;5074070;28;20040;-74
2021/12/12 00:45:47;;;;;;;3.33;1.42;;;;;;;;;;5074252;28;20035;-75
2021/12/12 00:48:12;;;;;;;3.72;1.58;;;;;;;;;;5074204;28;20037;-73
2021/12/12 00:50:40;;;;;;;5.65;1.70;;;;;;;;;;5074014;28;20396;-76
2021/12/12 00:53:07;;;;;;;6.25;1.80;;;;;;;;;;5074332;28;20113;-73
2021/12/12 00:55:37;;;;;;;5.60;1.60;;;;;;;;;;5074070;28;20451;-72
2021/12/12 00:58:06;;;;;;;5.75;1.60;;;;;;;;;;5073913;28;20040;-72
2021/12/12 01:00:36;;;;;;;3.67;1.63;;;;;;;;;;5073971;28;20039;-72
2021/12/12 01:03:03;;;;;;;3.63;1.52;;;;;;;;;;5072789;28;20047;-73
2021/12/12 01:05:28;;;;;;;5.65;1.77;;;;;;;;;;5073894;28;20035;-73
2021/12/12 01:07:54;;;;;;;5.53;1.60;;;;;;;;;;5073770;28;20119;-73
2021/12/12 01:10:24;;;;;;;4.55;1.60;;;;;;;;;;5073594;28;20025;-73
2021/12/12 01:12:50;;;;;;;4.75;1.63;;;;;;;;;;5072422;28;20067;-73
2021/12/12 01:15:24;;;;;;;6.00;2.03;;;;;;;;;;5073798;28;20078;-72
2021/12/12 01:17:51;;;;;;;4.72;1.35;;;;;;;;;;5073633;28;20043;-71
2021/12/12 01:20:20;;;;;;;4.72;1.30;;;;;;;;;;5072176;28;20081;-71
2021/12/12 01:22:46;;;;;;;4.50;1.52;;;;;;;;;;5055642;28;20132;-72
2021/12/12 01:25:20;;;;;;;2.92;1.20;;;;;;;;;;5073320;28;20032;-72
2021/12/12 01:27:47;;;;;;;5.75;1.60;;;;;;;;;;5072400;28;20064;-74
2021/12/12 01:30:13;;;;;;;4.60;1.40;;;;;;;;;;5072554;28;20391;-71
2021/12/12 01:32:42;;;;;;;2.95;1.13;;;;;;;;;;5073456;28;20032;-72
2021/12/12 01:35:16;;;;;;;4.53;1.20;;;;;;;;;;5055487;28;20041;-72
2021/12/12 01:38:50;;;;;;;5.70;1.58;;;;;;;;;;5055385;28;20068;-71
2021/12/12 01:40:33;;;;;;;;;;;;;;;;;;5072649;28;20032;-71
2021/12/12 01:43:05;;;;;;;4.63;1.38;;;;;;;;;;5073153;28;19912;-72
2021/12/12 01:45:33;;;;;;;2.00;1.00;;;;;;;;;;5073521;28;20036;-72
2021/12/12 01:48:08;;;;;;;4.05;1.25;;;;;;;;;;5073459;28;20037;-74
2021/12/12 01:50:41;;;;;;;4.78;1.10;;;;;;;;;;5073316;28;20040;-72
2021/12/12 01:53:09;;;;;;;3.38;1.48;;;;;;;;;;5054740;28;20051;-70
2021/12/12 01:55:37;;;;;;;4.85;1.33;;;;;;;;;;5072316;28;20399;-72
2021/12/12 01:58:08;;;;;;;5.22;1.20;;;;;;;;;;5073129;28;20032;-72
2021/12/12 02:00:36;;;;;;;3.45;1.10;;;;;;;;;;5073021;28;20028;-73
2021/12/12 02:03:02;;;;;;;3.17;1.27;;;;;;;;;;5072603;28;20040;-75
2021/12/12 02:05:28;;;;;;;4.38;1.65;;;;;;;;;;5073002;28;20392;-72
2021/12/12 02:07:56;;;;;;;5.28;1.35;;;;;;;;;;5072825;28;20029;-74
2021/12/12 02:10:24;;;;;;;3.70;1.30;;;;;;;;;;5071776;28;20385;-74
2021/12/12 02:12:50;;;;;;;8.07;1.73;;;;;;;;;;5073035;28;20032;-73
2021/12/12 02:15:16;;;;;;;4.82;1.77;;;;;;;;;;5071538;28;20534;-73
2021/12/12 02:17:46;;;;;;;5.50;1.30;;;;;;;;;;5054619;28;20063;-71
2021/12/12 02:20:20;;;;;;;4.20;1.33;;;;;;;;;;5071446;28;20051;-72
2021/12/12 02:23:03;;;;;;;2.85;1.10;;;;;;;;;;5055070;28;20140;-71
2021/12/12 02:36:42;;;;;;;6.63;1.30;;;;;;;;;;5071188;28;20028;-72
2021/12/12 02:39:15;;;;;;;4.60;1.30;;;;;;;;;;5072427;28;20025;-72
2021/12/12 02:41:42;;;;;;;6.20;1.42;;;;;;;;;;5072500;28;20044;-73
2021/12/12 02:44:07;;;;;;;4.80;1.67;;;;;;;;;;5072352;28;20086;-72
2021/12/12 02:46:35;;;;;;;4.28;1.30;;;;;;;;;;5072249;28;20479;-71
2021/12/12 02:49:08;;;;;;;5.72;1.45;;;;;;;;;;5070984;28;20036;-71
2021/12/12 02:51:41;;;;;;;3.65;1.13;;;;;;;;;;5072437;28;20037;-71
2021/12/12 02:54:07;;;;;;;3.85;1.30;;;;;;;;;;5071018;28;20044;-71
2021/12/12 02:56:37;;;;;;;5.32;1.20;;;;;;;;;;5072587;28;20040;-72
2021/12/12 02:59:04;;;;;;;3.33;1.10;;;;;;;;;;5070977;28;20033;-71
2021/12/12 03:01:32;;;;;;;2.08;1.05;;;;;;;;;;5070774;28;20078;-71
2021/12/12 03:03:58;;;;;;;5.07;1.40;;;;;;;;;;5073165;28;20124;-71
2021/12/12 03:06:26;;;;;;;2.33;1.02;;;;;;;;;;5074473;28;20056;-71
2021/12/12 03:08:53;;;;;;;5.20;1.15;;;;;;;;;;5074581;28;20050;-70
2021/12/12 03:11:21;;;;;;;6.63;1.38;;;;;;;;;;5075515;28;20047;-71
2021/12/12 03:13:46;;;;;;;4.18;1.23;;;;;;;;;;5075609;28;20079;-72
2021/12/12 03:16:12;;;;;;;2.60;1.00;;;;;;;;;;5075462;28;20110;-71
2021/12/12 03:18:40;;;;;;;2.45;1.00;;;;;;;;;;5074423;28;20424;-71
2021/12/12 03:21:32;;;;;;;3.42;1.00;;;;;;;;;;5075580;28;20400;-71
2021/12/12 03:24:01;;;;;;;7.03;1.02;;;;;;;;;;5075637;28;20047;-72
2021/12/12 03:26:27;;;;;;;4.55;1.27;;;;;;;;;;5074228;28;20037;-71
2021/12/12 03:28:54;;;;;;;3.47;1.20;;;;;;;;;;5074349;28;20038;-71
2021/12/12 03:31:40;;;;;;;3.72;1.50;;;;;;;;;;5073997;28;20480;-71
2021/12/12 03:34:07;;;;;;;3.20;1.20;;;;;;;;;;5074236;28;20127;-71
2021/12/12 03:36:32;;;;;;;5.50;1.10;;;;;;;;;;5075405;28;20111;-71
2021/12/12 03:39:03;;;;;;;3.35;1.20;;;;;;;;;;5075208;28;20115;-71
2021/12/12 03:41:30;;;;;;;1.65;0.90;;;;;;;;;;5075368;28;20039;-72
2021/12/12 03:43:58;;;;;;;4.95;1.00;;;;;;;;;;5075148;28;20029;-73
2021/12/12 03:46:24;;;;;;;4.95;1.13;;;;;;;;;;5073799;28;20453;-73
2021/12/12 03:48:52;;;;;;;3.72;1.00;;;;;;;;;;5073829;28;20059;-72
2021/12/12 03:51:18;;;;;;;2.67;0.80;;;;;;;;;;5074931;28;20049;-72
2021/12/12 03:53:44;;;;;;;2.90;0.80;;;;;;;;;;5074928;28;20071;-72
2021/12/12 03:56:11;;;;;;;2.60;1.10;;;;;;;;;;5074962;28;20460;-72
2021/12/12 03:58:37;;;;;;;8.85;1.33;;;;;;;;;;5074858;28;20033;-72
2021/12/12 04:01:08;;;;;;;3.53;1.35;;;;;;;;;;5073677;28;20051;-72
2021/12/12 04:03:34;;;;;;;7.07;1.63;;;;;;;;;;5068481;28;20033;-73
2021/12/12 04:06:01;;;;;;;3.63;0.85;;;;;;;;;;5052996;28;20500;-72
2021/12/12 04:08:33;;;;;;;2.95;0.90;;;;;;;;;;5070926;28;20035;-72
2021/12/12 04:10:58;;;;;;;2.97;0.95;;;;;;;;;;5070598;28;20075;-74
2021/12/12 04:13:24;;;;;;;2.38;0.98;;;;;;;;;;5070712;28;20110;-72
2021/12/12 04:15:53;;;;;;;2.60;0.98;;;;;;;;;;5070455;28;20032;-73
2021/12/12 04:18:20;;;;;;;2.75;0.90;;;;;;;;;;5069428;28;20476;-71
2021/12/12 04:20:45;;;;;;;3.10;1.65;;;;;;;;;;5069060;28;20040;-71
2021/12/12 04:23:18;;;;;;;3.97;1.05;;;;;;;;;;5052742;28;20033;-73
2021/12/12 04:25:44;;;;;;;1.73;0.88;;;;;;;;;;5070549;28;20435;-73
2021/12/12 04:28:09;;;;;;;3.85;1.10;;;;;;;;;;5071181;28;20040;-72
2021/12/12 04:30:35;;;;;;;2.88;0.80;;;;;;;;;;5070428;28;20090;-71
2021/12/12 04:33:00;;;;;;;5.38;1.40;;;;;;;;;;5070709;28;20081;-71
2021/12/12 04:35:26;;;;;;;2.28;1.00;;;;;;;;;;5069198;28;20044;-71
2021/12/12 04:37:55;;;;;;;6.35;1.50;;;;;;;;;;5070427;28;20028;-73
2021/12/12 04:40:22;;;;;;;2.92;0.85;;;;;;;;;;5072088;28;20036;-70
2021/12/12 04:42:49;;;;;;;4.88;1.00;;;;;;;;;;5071801;28;20378;-70
2021/12/12 04:45:33;;;;;;;4.32;0.90;;;;;;;;;;5090558;28;20032;-72
2021/12/12 04:50:52;;;;;;;3.50;1.08;;;;;;;;;;5090314;28;20438;-71
2021/12/12 04:53:23;;;;;;;4.53;0.95;;;;;;;;;;5089119;28;20032;-72
2021/12/12 04:55:55;;;;;;;3.00;1.00;;;;;;;;;;5090367;28;20063;-72
2021/12/12 04:58:32;;;;;;;6.53;1.30;;;;;;;;;;5090473;28;20028;-69
2021/12/12 05:00:59;;;;;;;4.07;1.00;;;;;;;;;;5090201;28;20031;-71
2021/12/12 05:03:25;;;;;;;2.95;1.08;;;;;;;;;;5090463;28;20040;-72
2021/12/12 05:05:59;;;;;;;3.53;0.90;;;;;;;;;;5090196;28;20047;-73
2021/12/12 05:08:25;;;;;;;3.90;0.90;;;;;;;;;;5090133;28;20049;-71
2021/12/12 05:10:57;;;;;;;2.10;0.93;;;;;;;;;;5088652;28;20139;-71
2021/12/12 05:13:25;;;;;;;4.90;1.20;;;;;;;;;;5090143;28;20077;-71
2021/12/12 05:15:56;;;;;;;1.50;0.80;;;;;;;;;;5090216;28;20035;-71
2021/12/12 05:18:28;;;;;;;3.90;0.80;;;;;;;;;;5089933;28;20040;-71
2021/12/12 05:21:05;;;;;;;2.47;0.98;;;;;;;;;;5090020;28;20059;-70
2021/12/12 05:23:31;;;;;;;3.17;0.90;;;;;;;;;;5089768;28;20399;-69
2021/12/12 05:25:59;;;;;;;5.07;1.00;;;;;;;;;;5088741;28;20040;-72
2021/12/12 05:28:30;;;;;;;2.70;0.95;;;;;;;;;;5071827;28;20039;-71
2021/12/12 05:30:57;;;;;;;1.35;0.75;;;;;;;;;;5088328;28;20055;-72
2021/12/12 05:33:23;;;;;;;2.83;0.90;;;;;;;;;;5089906;28;20044;-71
2021/12/12 05:35:49;;;;;;;1.95;0.98;;;;;;;;;;5071560;28;20043;-72
2021/12/12 05:38:14;;;;;;;5.03;1.10;;;;;;;;;;5089575;28;20123;-72
2021/12/12 05:40:41;;;;;;;2.55;0.98;;;;;;;;;;5089599;28;20108;-72
2021/12/12 05:43:07;;;;;;;2.00;0.88;;;;;;;;;;5089691;28;20483;-73
2021/12/12 05:45:33;;;;;;;2.20;0.90;;;;;;;;;;5089512;28;20064;-73
2021/12/12 05:47:59;;;;;;;6.18;1.02;;;;;;;;;;5088481;28;20028;-69
2021/12/12 05:50:26;;;;;;;2.78;0.85;;;;;;;;;;5089540;28;20047;-70
2021/12/12 05:52:54;;;;;;;3.53;0.85;;;;;;;;;;5089412;28;20028;-71
2021/12/12 05:55:20;;;;;;;1.60;0.80;;;;;;;;;;5085494;28;20032;-71
2021/12/12 05:57:53;;;;;;;2.00;0.93;;;;;;;;;;5088975;28;20040;-71
2021/12/12 06:00:19;;;;;;;1.85;1.00;;;;;;;;;;5088942;28;20036;-73
2021/12/12 06:02:45;;;;;;;3.00;1.10;;;;;;;;;;5087705;28;20082;-71
2021/12/12 06:05:11;;;;;;;4.30;1.10;;;;;;;;;;5087524;28;20028;-72
2021/12/12 06:07:36;;;;;;;2.40;0.80;;;;;;;;;;5088196;28;20042;-71
2021/12/12 06:10:10;;;;;;;2.00;0.90;;;;;;;;;;5086663;28;20487;-72
2021/12/12 06:12:36;;;;;;;2.22;0.88;;;;;;;;;;5087044;28;20036;-72
2021/12/12 06:15:03;;;;;;;4.57;0.95;;;;;;;;;;5085761;28;20093;-71
2021/12/12 06:17:29;;;;;;;2.22;1.00;;;;;;;;;;5087149;28;20118;-71
2021/12/12 06:19:56;;;;;;;2.75;0.80;;;;;;;;;;5085859;28;20128;-71
2021/12/12 06:22:21;;;;;;;4.53;0.80;;;;;;;;;;5085517;28;20055;-70
2021/12/12 06:24:48;;;;;;;3.83;0.93;;;;;;;;;;5086011;28;20506;-71
2021/12/12 06:27:18;;;;;;;2.67;0.85;;;;;;;;;;5086046;28;20384;-70
2021/12/12 06:29:44;;;;;;;;;;;;;;;;;;5086636;28;20040;-70
2021/12/12 06:32:09;;;;;;;2.58;0.90;;;;;;;;;;5087068;28;19961;-70
2021/12/12 06:34:35;;;;;;;1.88;0.77;;;;;;;;;;5087095;28;20268;-72
2021/12/12 06:37:00;;;;;;;3.30;1.00;;;;;;;;;;5086507;28;20106;-74
2021/12/12 06:39:26;;;;;;;3.42;0.80;;;;;;;;;;5088903;28;20115;-74
2021/12/12 06:41:51;;;;;;;1.30;0.80;;;;;;;;;;5088757;28;20062;-74
2021/12/12 06:44:17;;;;;;;4.65;1.02;;;;;;;;;;5087574;28;20024;-71
2021/12/12 06:46:43;;;;;;;3.72;1.15;;;;;;;;;;5088436;28;20394;-73
2021/12/12 06:49:10;;;;;;;3.13;0.77;;;;;;;;;;5088669;28;20035;-75
2021/12/12 06:51:40;;;;;;;2.53;0.70;;;;;;;;;;5087628;28;20044;-74
2021/12/12 06:54:06;;;;;;;2.00;1.05;;;;;;;;;;5087208;28;20062;-72
2021/12/12 06:56:32;;;;;;;3.92;1.00;;;;;;;;;;5087574;28;20044;-71
2021/12/12 06:58:58;;;;;;;2.17;0.93;;;;;;;;;;5087045;28;20036;-72
2021/12/12 07:01:25;;;;;;;2.97;1.00;;;;;;;;;;5087464;28;20185;-72
2021/12/12 07:03:50;;;;;;;1.73;0.70;;;;;;;;;;5087299;28;20088;-72
2021/12/12 07:06:20;;;;;;;3.92;1.05;;;;;;;;;;5088364;28;20106;-73
2021/12/12 07:08:45;;;;;;;1.27;0.70;;;;;;;;;;5070099;28;20044;-72
2021/12/12 07:11:13;;;;;;;2.97;0.82;;;;;;;;;;5088426;28;20058;-72
2021/12/12 07:13:39;;;;;;;3.25;0.90;;;;;;;;;;5081439;28;20055;-71
2021/12/12 07:16:05;;;;;;;1.58;0.70;;;;;;;;;;5074696;28;20480;-73
2021/12/12 07:18:32;;;;;;;2.33;0.77;;;;;;;;;;5077470;28;20031;-70
2021/12/12 07:20:59;;;;;;;3.00;0.73;;;;;;;;;;5065124;28;20028;-74
2021/12/12 07:23:25;;;;;;;3.65;0.70;;;;;;;;;;5057466;28;20040;-72
2021/12/12 07:25:52;;;;;;;3.42;0.95;;;;;;;;;;5059739;28;20043;-73
2021/12/12 07:28:17;;;;;;;3.55;0.80;;;;;;;;;;5066739;28;20052;-73
2021/12/12 07:30:43;;;;;;;4.78;0.90;;;;;;;;;;5076565;28;20416;-72
2021/12/12 07:33:10;;;;;;;2.83;0.82;;;;;;;;;;5076800;28;20028;-73
2021/12/12 07:35:37;;;;;;;2.63;1.15;;;;;;;;;;5069226;28;20395;-74
2021/12/12 07:38:08;;;;;;;5.50;0.95;;;;;;;;;;5066438;28;20053;-74
2021/12/12 07:40:34;;;;;;;7.60;1.13;;;;;;;;;;5049584;28;20039;-73
2021/12/12 07:42:59;;;;;;;3.10;1.10;;;;;;;;;;5067160;28;20067;-73
2021/12/12 07:45:25;;;;;;;1.80;0.90;;;;;;;;;;5066241;28;20037;-73
2021/12/12 07:47:51;;;;;;;1.42;0.85;;;;;;;;;;5067424;28;20040;-73
2021/12/12 07:50:17;;;;;;;2.95;1.35;;;;;;;;;;5051821;28;20042;-72
2021/12/12 07:52:45;;;;;;;2.53;1.10;;;;;;;;;;5089799;28;20061;-74
2021/12/12 07:55:10;;;;;;;4.22;1.20;;;;;;;;;;5072635;28;20664;-73
2021/12/12 07:57:36;;;;;;;4.15;1.52;;;;;;;;;;5091026;28;20063;-72
2021/12/12 08:00:04;;;;;;;2.58;1.08;;;;;;;;;;5091095;28;20127;-73
2021/12/12 08:02:37;;;;;;;2.95;1.35;;;;;;;;;;5089560;28;20040;-74
2021/12/12 08:05:03;;;;;;;2.50;1.02;;;;;;;;;;5091058;28;20031;-74
2021/12/12 08:07:29;;;;;;;1.85;1.10;;;;;;;;;;5072669;28;20036;-74
2021/12/12 08:09:54;;;;;;;4.43;1.13;;;;;;;;;;5089624;28;20043;-73
2021/12/12 08:12:25;;;;;;;2.90;1.00;;;;;;;;;;5091134;28;20028;-75
2021/12/12 08:14:51;;;;;;;4.60;1.00;;;;;;;;;;5071743;28;20043;-73
2021/12/12 08:17:20;;;;;;;2.90;1.30;;;;;;;;;;5090566;28;20103;-74
2021/12/12 08:19:46;;;;;;;3.00;1.10;;;;;;;;;;5089456;28;20032;-75
2021/12/12 08:22:11;;;;;;;4.47;1.30;;;;;;;;;;5090642;28;20119;-76
2021/12/12 08:24:37;;;;;;;2.55;1.02;;;;;;;;;;5090744;28;20034;-75
2021/12/12 08:27:05;;;;;;;1.63;0.85;;;;;;;;;;5072625;28;20036;-77
2021/12/12 08:29:31;;;;;;;3.78;1.05;;;;;;;;;;5089393;28;20032;-78
2021/12/12 08:31:56;;;;;;;2.92;1.13;;;;;;;;;;5090834;28;20431;-76
2021/12/12 08:34:22;;;;;;;3.80;1.23;;;;;;;;;;5090895;28;20040;-75
2021/12/12 08:36:49;;;;;;;3.58;1.05;;;;;;;;;;5089470;28;20383;-70
2021/12/12 08:39:15;;;;;;;3.47;1.00;;;;;;;;;;5072418;28;20032;-73
2021/12/12 08:41:41;;;;;;;4.18;1.45;;;;;;;;;;5089166;28;20024;-73
2021/12/12 08:44:08;;;;;;;2.90;1.27;;;;;;;;;;5089245;28;20077;-70
2021/12/12 08:46:34;;;;;;;4.32;1.35;;;;;;;;;;5088849;28;20530;-71
2021/12/12 08:49:00;;;;;;;3.70;1.27;;;;;;;;;;5072126;28;20032;-71
2021/12/12 08:51:32;;;;;;;1.77;1.00;;;;;;;;;;5089236;28;20054;-70
2021/12/12 08:54:02;;;;;;;1.92;0.90;;;;;;;;;;5072139;28;20039;-71
2021/12/12 08:56:43;;;;;;;3.88;1.40;;;;;;;;;;5072283;28;20032;-68
2021/12/12 08:59:10;;;;;;;3.88;1.20;;;;;;;;;;5089176;28;20031;-68
2021/12/12 09:01:37;;;;;;;2.80;1.20;;;;;;;;;;5070941;28;20039;-70
2021/12/12 09:04:03;;;;;;;2.63;1.30;;;;;;;;;;5088684;28;20123;-69
2021/12/12 09:06:31;;;;;;;2.90;1.10;;;;;;;;;;5070114;28;20028;-73
2021/12/12 09:09:16;;;;;;;2.40;1.35;;;;;;;;;;5086704;28;20051;-71
2021/12/12 09:11:45;;;;;;;2.53;1.23;;;;;;;;;;5069091;28;20128;-69
2021/12/12 09:14:20;;;;;;;4.05;1.45;;;;;;;;;;5088120;28;20080;-72
2021/12/12 09:17:09;;;;;;;3.75;1.48;;;;;;;;;;5069674;28;20036;-69
2021/12/12 09:19:35;;;;;;;2.45;1.20;;;;;;;;;;5080940;28;20479;-69
2021/12/12 09:22:04;;;;;;;4.68;1.50;;;;;;;;;;5071833;28;20435;-68
2021/12/12 09:24:30;;;;;;;3.70;1.40;;;;;;;;;;5071866;28;20035;-67
2021/12/12 09:27:00;;;;;;;5.53;1.50;;;;;;;;;;5088353;28;20399;-68
2021/12/12 09:29:32;;;;;;;3.63;1.63;;;;;;;;;;5088286;28;20499;-69
2021/12/12 09:32:00;;;;;;;3.65;1.50;;;;;;;;;;5071940;28;20040;-70
2021/12/12 09:34:49;;;;;;;4.68;1.70;;;;;;;;;;5088489;28;20039;-70
2021/12/12 09:37:19;;;;;;;4.63;1.40;;;;;;;;;;5088397;28;20502;-70
2021/12/12 09:39:48;;;;;;;2.53;1.23;;;;;;;;;;5071768;28;20069;-69
2021/12/12 09:42:32;;;;;;;3.47;1.50;;;;;;;;;;5088296;28;20028;-69
2021/12/12 09:45:16;;;;;;;2.85;1.40;;;;;;;;;;5088059;28;20032;-68
2021/12/12 09:51:17;;;;;;;3.80;1.42;;;;;;;;;;5081409;28;20513;-69
2021/12/12 09:53:48;;;;;;;2.97;1.42;;;;;;;;;;5089613;28;20521;-68
2021/12/12 09:56:21;;;;;;;2.47;1.27;;;;;;;;;;5089681;28;20032;-68
2021/12/12 09:58:52;;;;;;;3.78;1.70;;;;;;;;;;5089034;28;20475;-67
2021/12/12 10:01:29;;;;;;;4.45;1.83;;;;;;;;;;5088728;28;20127;-68
2021/12/12 10:04:14;;;;;;;3.05;1.67;;;;;;;;;;5087186;28;20032;-66
2021/12/12 10:07:12;;;;;;;2.67;1.40;;;;;;;;;;5087710;28;20028;-68
2021/12/12 10:09:58;;;;;;;3.22;1.40;;;;;;;;;;5054089;28;20051;-68
2021/12/12 10:12:26;;;;;;;3.85;1.75;;;;;;;;;;5086700;28;20620;-67
2021/12/12 10:14:58;;;;;;;3.13;1.50;;;;;;;;;;5086860;28;20517;-67
2021/12/12 10:17:26;;;;;;;5.40;1.40;;;;;;;;;;5087179;28;20035;-68
2021/12/12 10:20:01;;;;;;;3.20;1.40;;;;;;;;;;5085632;28;20035;-68
2021/12/12 10:22:42;;;;;;;4.00;1.60;;;;;;;;;;5086084;28;20036;-68
2021/12/12 10:25:10;;;;;;;4.35;1.63;;;;;;;;;;5086237;28;20077;-65
2021/12/12 10:27:36;;;;;;;3.85;1.80;;;;;;;;;;5085470;28;20085;-67
2021/12/12 10:30:05;;;;;;;3.72;1.50;;;;;;;;;;5084179;28;20040;-68
2021/12/12 10:32:33;;;;;;;3.43;1.40;;;;;;;;;;5085425;28;20032;-66
2021/12/12 10:34:59;;;;;;;3.85;1.65;;;;;;;;;;5085662;28;20267;-67
2021/12/12 10:37:27;;;;;;;5.22;1.65;;;;;;;;;;5087154;28;20146;-68
2021/12/12 10:40:19;;;;;;;3.22;1.80;;;;;;;;;;5086018;28;20124;-67
2021/12/12 10:42:47;;;;;;;3.00;1.20;;;;;;;;;;5067127;28;20052;-67
2021/12/12 10:45:19;;;;;;;3.72;1.40;;;;;;;;;;5087536;28;20032;-68
2021/12/12 10:47:59;;;;;;;3.28;1.42;;;;;;;;;;5088710;28;20040;-68
2021/12/12 10:50:24;;;;;;;;;;;;;;;;;;5089195;28;20107;-68
2021/12/12 10:52:50;;;;;;;3.45;1.92;;;;;;;;;;5087610;28;19923;-68
2021/12/12 10:55:20;;;;;;;4.63;2.00;;;;;;;;;;5088792;28;20063;-67
2021/12/12 10:57:54;;;;;;;4.32;1.67;;;;;;;;;;5087848;28;20036;-67
2021/12/12 11:00:22;;;;;;;2.03;1.30;;;;;;;;;;5088687;28;20039;-66
2021/12/12 11:02:48;;;;;;;4.32;1.90;;;;;;;;;;5088410;28;20395;-67
2021/12/12 11:05:18;;;;;;;4.15;2.25;;;;;;;;;;5088388;28;20031;-68
2021/12/12 11:07:46;;;;;;;2.83;1.58;;;;;;;;;;5088353;28;20489;-68
2021/12/12 11:10:18;;;;;;;2.95;1.60;;;;;;;;;;5088333;28;20032;-68
2021/12/12 11:12:46;;;;;;;3.42;1.40;;;;;;;;;;5088258;28;20378;-68
2021/12/12 11:15:15;;;;;;;4.13;1.77;;;;;;;;;;5088192;28;20456;-66
2021/12/12 11:17:43;;;;;;;4.53;1.30;;;;;;;;;;5088983;28;20563;-68
2021/12/12 11:20:19;;;;;;;4.05;1.50;;;;;;;;;;5088211;28;20024;-67
2021/12/12 11:22:59;;;;;;;4.78;2.03;;;;;;;;;;5088111;28;20102;-64
2021/12/12 11:25:28;;;;;;;4.40;2.08;;;;;;;;;;5090179;28;20594;-68
2021/12/12 11:27:56;;;;;;;3.47;1.65;;;;;;;;;;5091926;28;20024;-67
2021/12/12 11:30:30;;;;;;;4.55;1.55;;;;;;;;;;5091764;28;20036;-68
2021/12/12 11:32:56;;;;;;;4.78;1.70;;;;;;;;;;5091600;28;20119;-66
2021/12/12 11:35:22;;;;;;;3.28;1.67;;;;;;;;;;5090291;28;20110;-66
2021/12/12 11:37:57;;;;;;;5.03;1.80;;;;;;;;;;5091530;28;20039;-66
2021/12/12 11:40:28;;;;;;;5.18;1.80;;;;;;;;;;5091689;28;20035;-67
2021/12/12 11:42:53;;;;;;;3.60;1.80;;;;;;;;;;5091282;28;20036;-68
2021/12/12 11:45:18;;;;;;;3.08;1.40;;;;;;;;;;5091749;28;20140;-66
2021/12/12 11:47:53;;;;;;;6.32;3.60;;;;;;;;;;5090138;28;20054;-66
2021/12/12 11:50:28;;;;;;;2.60;1.45;;;;;;;;;;5087942;28;20372;-67
2021/12/12 11:52:54;;;;;;;6.40;1.60;;;;;;;;;;5090721;28;20054;-67
2021/12/12 11:55:34;;;;;;;4.80;1.95;;;;;;;;;;5091395;28;20471;-68
2021/12/12 11:58:23;;;;;;;3.08;1.60;;;;;;;;;;5091216;28;20578;-70
2021/12/12 12:00:57;;;;;;;2.97;1.58;;;;;;;;;;5082584;28;20036;-70
2021/12/12 12:03:29;;;;;;;3.47;1.60;;;;;;;;;;5090286;28;20051;-66
2021/12/12 12:06:12;;;;;;;2.92;1.80;;;;;;;;;;5091059;28;20039;-69
2021/12/12 12:08:38;;;;;;;3.85;1.90;;;;;;;;;;5091135;28;20043;-70
2021/12/12 12:11:07;;;;;;;3.88;2.10;;;;;;;;;;5090865;28;20040;-71
2021/12/12 12:13:38;;;;;;;4.00;2.00;;;;;;;;;;5089365;28;20047;-69
2021/12/12 12:16:10;;;;;;;4.55;1.90;;;;;;;;;;5090849;28;20047;-69
2021/12/12 12:18:55;;;;;;;4.95;1.88;;;;;;;;;;5090943;28;20468;-66
2021/12/12 12:21:30;;;;;;;5.85;1.90;;;;;;;;;;5090968;28;20175;-69
2021/12/12 12:28:58;;;;;;;4.45;2.60;;;;;;;;;;5126293;28;20464;-66
2021/12/12 12:31:33;;;;;;;6.03;3.30;;;;;;;;;;5108255;28;20028;-67
2021/12/12 12:34:01;;;;;;;8.27;3.67;;;;;;;;;;5126218;28;20032;-67
2021/12/12 12:36:46;;;;;;;6.18;3.58;;;;;;;;;;5126103;28;20037;-65
2021/12/12 12:39:30;;;;;;;9.05;3.75;;;;;;;;;;5126023;28;20031;-66
2021/12/12 12:42:01;;;;;;;4.45;2.15;;;;;;;;;;5126229;28;20066;-66
2021/12/12 12:44:45;;;;;;;4.10;2.10;;;;;;;;;;5126336;28;20031;-65
2021/12/12 12:47:29;;;;;;;5.28;2.10;;;;;;;;;;5126170;28;20409;-65
2021/12/12 12:49:58;;;;;;;3.97;1.92;;;;;;;;;;5126014;28;20471;-66
2021/12/12 12:52:36;;;;;;;4.82;1.65;;;;;;;;;;5125792;28;20039;-68
2021/12/12 12:55:20;;;;;;;3.65;1.67;;;;;;;;;;5125801;28;20479;-68
2021/12/12 12:57:46;;;;;;;3.53;1.70;;;;;;;;;;5125544;27;20058;-68
2021/12/12 13:00:17;;;;;;;4.15;1.80;;;;;;;;;;5113887;28;20040;-67
2021/12/12 13:03:01;;;;;;;4.35;1.90;;;;;;;;;;5125777;28;20547;-66
2021/12/12 13:05:52;;;;;;;4.05;1.80;;;;;;;;;;5125388;28;20042;-67
2021/12/12 13:08:35;;;;;;;4.35;1.90;;;;;;;;;;5125612;28;20027;-66
2021/12/12 13:11:05;;;;;;;4.13;1.55;;;;;;;;;;5125797;28;20471;-67
2021/12/12 13:13:32;;;;;;;3.47;1.65;;;;;;;;;;5125475;28;20431;-67
2021/12/12 13:16:02;;;;;;;2.65;1.45;;;;;;;;;;5125496;28;20126;-66
2021/12/12 13:18:27;;;;;;;4.68;1.67;;;;;;;;;;5107544;28;20027;-66
2021/12/12 13:21:05;;;;;;;2.85;1.60;;;;;;;;;;5106890;28;20042;-67
2021/12/12 13:23:34;;;;;;;3.08;1.70;;;;;;;;;;5104905;28;20115;-66
2021/12/12 13:26:06;;;;;;;2.53;1.50;;;;;;;;;;5102892;28;20032;-67
2021/12/12 13:28:47;;;;;;;3.78;1.80;;;;;;;;;;5066127;28;20040;-66
2021/12/12 13:31:36;;;;;;;2.67;1.65;;;;;;;;;;5084420;28;20032;-68
2021/12/12 13:34:20;;;;;;;3.80;1.90;;;;;;;;;;5092524;28;20024;-66
2021/12/12 13:36:54;;;;;;;4.75;1.55;;;;;;;;;;5077944;28;20036;-68
2021/12/12 13:39:22;;;;;;;3.35;1.80;;;;;;;;;;5072994;28;20036;-66
2021/12/12 13:42:08;;;;;;;4.30;2.15;;;;;;;;;;5076434;28;20417;-68
2021/12/12 13:44:52;;;;;;;3.30;1.75;;;;;;;;;;5076101;28;20033;-66
2021/12/12 13:47:29;;;;;;;3.55;1.90;;;;;;;;;;5052995;28;20044;-65
2021/12/12 13:49:59;;;;;;;5.13;1.77;;;;;;;;;;5075710;28;20028;-65
2021/12/12 13:52:27;;;;;;;3.53;1.80;;;;;;;;;;5077578;28;20032;-66
2021/12/12 13:55:03;;;;;;;5.70;2.20;;;;;;;;;;5081117;28;20028;-68
2021/12/12 13:57:29;;;;;;;3.15;2.10;;;;;;;;;;5090754;28;20043;-68
2021/12/12 14:00:01;;;;;;;3.30;2.08;;;;;;;;;;5090883;28;20039;-67
2021/12/12 14:02:26;;;;;;;3.90;2.15;;;;;;;;;;5090767;28;20489;-68
2021/12/12 14:05:06;;;;;;;3.60;2.22;;;;;;;;;;5090309;28;20044;-67
2021/12/12 14:07:55;;;;;;;4.28;2.80;;;;;;;;;;5088324;28;20036;-68
2021/12/12 14:10:29;;;;;;;4.00;2.10;;;;;;;;;;5083383;28;20029;-68
2021/12/12 14:13:13;;;;;;;3.85;2.10;;;;;;;;;;5070597;28;20028;-65
2021/12/12 14:15:48;;;;;;;5.95;1.83;;;;;;;;;;5077015;28;20025;-68
2021/12/12 14:18:14;;;;;;;5.72;2.03;;;;;;;;;;5078416;28;20024;-66
2021/12/12 14:20:47;;;;;;;3.75;2.15;;;;;;;;;;5077953;28;20024;-67
2021/12/12 14:23:33;;;;;;;3.50;2.38;;;;;;;;;;5069452;28;20043;-67
2021/12/12 14:26:11;;;;;;;5.20;2.38;;;;;;;;;;5069748;28;20451;-67
2021/12/12 14:28:38;;;;;;;4.13;2.05;;;;;;;;;;5070419;28;20043;-67
2021/12/12 14:31:06;;;;;;;3.38;1.95;;;;;;;;;;5069592;28;20021;-67
2021/12/12 14:33:34;;;;;;;4.82;2.15;;;;;;;;;;5067827;28;20095;-67
2021/12/12 14:36:01;;;;;;;4.13;2.13;;;;;;;;;;5068193;28;20119;-67
2021/12/12 14:38:27;;;;;;;4.13;1.85;;;;;;;;;;5068322;28;20029;-66
2021/12/12 14:40:58;;;;;;;3.58;1.90;;;;;;;;;;5068014;28;20396;-66
2021/12/12 14:43:28;;;;;;;3.42;1.70;;;;;;;;;;5067922;28;20036;-66
2021/12/12 14:45:57;;;;;;;3.50;1.85;;;;;;;;;;5068717;28;20048;-65
2021/12/12 14:48:24;;;;;;;3.70;1.98;;;;;;;;;;5073079;28;20028;-67
2021/12/12 14:50:52;;;;;;;2.70;1.60;;;;;;;;;;5069914;28;20111;-66
2021/12/12 14:53:20;;;;;;;3.63;1.63;;;;;;;;;;5086604;28;20037;-66
2021/12/12 14:55:54;;;;;;;3.75;2.00;;;;;;;;;;5069389;28;20123;-66
2021/12/12 14:58:26;;;;;;;4.38;2.15;;;;;;;;;;5069636;28;20040;-67
2021/12/12 15:01:13;;;;;;;3.40;1.60;;;;;;;;;;5087952;28;20079;-66
2021/12/12 15:03:41;;;;;;;7.18;2.17;;;;;;;;;;5087859;28;20032;-66
2021/12/12 15:06:13;;;;;;;4.90;1.80;;;;;;;;;;5087400;28;20028;-65
2021/12/12 15:08:42;;;;;;;3.88;1.95;;;;;;;;;;5087745;28;20040;-65
2021/12/12 15:11:10;;;;;;;2.95;1.80;;;;;;;;;;5078161;28;20035;-65
2021/12/12 15:13:38;;;;;;;6.07;2.05;;;;;;;;;;5076738;28;20483;-66
2021/12/12 15:16:05;;;;;;;4.68;2.30;;;;;;;;;;5079551;28;20067;-66
2021/12/12 15:18:34;;;;;;;5.22;2.08;;;;;;;;;;5089529;28;20028;-66
2021/12/12 15:21:08;;;;;;;5.97;2.33;;;;;;;;;;5089463;28;20468;-66
2021/12/12 15:23:36;;;;;;;3.78;2.00;;;;;;;;;;5071096;28;20052;-65